CMA CGM White Shark — MPXV7 — position and weather

sailwx.info

Track history (hours):
 
Tides and Currents Weather Stations Pressure Air Temp Water Temp Dewpoint Dewpoint Depression Visibility Wind Speed Wind Dir Waves Ship Positions

CMA CGM White Shark

Last reported at 2018-May-23 19:38 UTC. Time now 2018-May-25 05:12 UTC.
Position N 49°49' W 011°29'.

Length 294 m; draft 12.5 m.

Type: Ship (hazmat cat D). MMSI: 235052035.

Date/timePositionNaut miles runAvg speedWind from/ knotsBaromVisibWave heightAir tempDewpointWater temp
2018-May-23 19:38N 49°49' W 011°29'318.7
2018-May-23 19:30N 49°49' W 011°25'918.9
2018-May-23 19:00N 49°49' W 011°11'1618.9
2018-May-23 18:08N 49°50' W 010°45'1019.2
2018-May-23 17:37N 49°49' W 010°30'719.2
2018-May-23 17:16N 49°49' W 010°20'519.4
2018-May-23 17:01N 49°49' W 010°12'1019.2
2018-May-23 16:29N 49°48' W 009°56'919.4
2018-May-23 16:00N 49°48' W 009°42'1019.6
2018-May-23 15:30N 49°48' W 009°27'5819.9
2018-May-23 12:37N 49°46' W 007°58'1219.7
2018-May-23 12:02N 49°45' W 007°40'119.7
2018-May-23 12:00N 49°45' W 007°39'9119.7
2018-May-23 07:25N 49°41' W 005°19'820.4
2018-May-23 07:00N 49°41' W 005°06'1120.4
2018-May-23 06:28N 49°42' W 004°49'1020.8
2018-May-23 05:58N 49°45' W 004°34'1020.8
2018-May-23 05:30N 49°47' W 004°19'1020.8
2018-May-23 05:00N 49°49' W 004°04'1020.5
2018-May-23 04:30N 49°51' W 003°48'1020.2
2018-May-23 04:01N 49°53' W 003°33'1019.9
2018-May-23 03:31N 49°55' W 003°18'1019.3
2018-May-23 03:01N 49°58' W 003°03'919.0
2018-May-23 02:31N 50°00' W 002°49'918.4
2018-May-23 02:01N 50°03' W 002°35'2418.1
2018-May-23 00:42N 50°09' W 001°59'418.2
2018-May-23 00:28N 50°11' W 001°53'818.5
2018-May-23 00:00N 50°14' W 001°41'1019.0
2018-May-22 23:30N 50°16' W 001°27'1019.9
2018-May-22 23:00N 50°18' W 001°11'1121.0
2018-May-22 22:30N 50°21' W 000°55'1121.4
2018-May-22 22:00N 50°24' W 000°39'1021.3
2018-May-22 21:30N 50°27' W 000°23'1121.2
2018-May-22 21:00N 50°30' W 000°07'1121.2
2018-May-22 20:30N 50°33' E 000°09'1121.1
2018-May-22 20:00N 50°36' E 000°25'1020.5
2018-May-22 19:30N 50°40' E 000°39'1020.2
2018-May-22 19:00N 50°46' E 000°52'1019.6
2018-May-22 18:30N 50°51' E 001°05'918.9
2018-May-22 18:00N 50°58' E 001°16'918.5
2018-May-22 17:30N 51°04' E 001°27'917.7
2018-May-22 17:00N 51°09' E 001°39'1817.5
2018-May-22 16:00N 51°23' E 001°55'918.9
2018-May-22 15:31N 51°31' E 002°04'1019.1
2018-May-22 15:00N 51°38' E 002°14'1119.5
2018-May-22 14:26N 51°47' E 002°26'819.5
2018-May-22 14:00N 51°53' E 002°35'1019.4
2018-May-22 13:30N 52°00' E 002°44'1019.2
2018-May-22 13:00N 52°08' E 002°55'1019.1
2018-May-22 12:30N 52°15' E 003°04'1018.7
2018-May-22 11:59N 52°23' E 003°13'1118.2
2018-May-22 11:23N 52°32' E 003°23'1517.6
2018-May-22 10:31N 52°44' E 003°39'117.4
2018-May-22 10:29N 52°45' E 003°40'1017.2
2018-May-22 09:56N 52°52' E 003°50'716.8
2018-May-22 09:30N 52°57' E 003°58'816.9
2018-May-22 09:00N 53°03' E 004°09'816.9
2018-May-22 08:30N 53°08' E 004°19'816.5
2018-May-22 08:00N 53°15' E 004°27'917.7
2018-May-22 07:29N 53°23' E 004°33'817.2
2018-May-22 07:00N 53°30' E 004°42'1019.2
2018-May-22 06:30N 53°32' E 004°57'1019.2
2018-May-22 06:00N 53°35' E 005°13'1019.1
2018-May-22 05:30N 53°39' E 005°28'918.8
2018-May-22 05:00N 53°43' E 005°42'918.5
2018-May-22 04:30N 53°46' E 005°57'918.2
2018-May-22 04:00N 53°48' E 006°12'917.8
2018-May-22 03:30N 53°51' E 006°26'917.6
2018-May-22 03:00N 53°53' E 006°41'917.3
2018-May-22 02:30N 53°55' E 006°55'917.1
2018-May-22 02:00N 53°57' E 007°09'816.8
2018-May-22 01:30N 53°58' E 007°23'816.3
2018-May-22 01:00N 53°60' E 007°37'816.6
2018-May-22 00:30N 53°53' E 007°46'713.4
2018-May-21 23:59N 53°52' E 007°57'714.9
2018-May-21 23:30N 53°48' E 008°08'815.8
2018-May-21 23:00N 53°43' E 008°18'816.4
2018-May-21 22:30N 53°37' E 008°28'3 5.8
2018-May-21 22:00N 53°35' E 008°32'0 0.0
2018-May-21 21:28N 53°35' E 008°32'0 0.0
2018-May-21 20:55N 53°35' E 008°32'0 0.0
2018-May-21 20:28N 53°35' E 008°32'0 0.0
2018-May-21 19:58N 53°35' E 008°32'0 0.0
2018-May-21 19:28N 53°35' E 008°32'0 0.0
2018-May-21 18:58N 53°35' E 008°32'0 0.0
2018-May-21 18:29N 53°35' E 008°32'0 0.0
2018-May-21 17:59N 53°35' E 008°32'0 0.0
2018-May-21 17:29N 53°35' E 008°32'0 0.0
2018-May-21 16:59N 53°35' E 008°32'0 0.0
2018-May-21 16:23N 53°35' E 008°32'0 0.0
2018-May-21 15:59N 53°35' E 008°32'0 0.0
2018-May-21 15:29N 53°35' E 008°32'0 0.0
2018-May-21 14:59N 53°35' E 008°32'0 0.0
2018-May-21 14:29N 53°35' E 008°32'0 0.0
2018-May-21 13:59N 53°35' E 008°32'0 0.0
2018-May-21 13:29N 53°35' E 008°32'0 0.0
2018-May-21 12:59N 53°35' E 008°32'0 0.0
2018-May-21 12:29N 53°35' E 008°32'0 0.0
2018-May-21 11:59N 53°35' E 008°32'0 0.0
2018-May-21 11:29N 53°35' E 008°32'0 0.0
2018-May-21 10:59N 53°35' E 008°32'0 0.0
2018-May-21 10:29N 53°35' E 008°32'0 0.0
2018-May-21 09:59N 53°35' E 008°32'0 0.0
2018-May-21 09:29N 53°35' E 008°32'0 0.0
2018-May-21 08:59N 53°35' E 008°32'0 0.0
2018-May-21 08:29N 53°35' E 008°32'0 0.0
2018-May-21 07:56N 53°35' E 008°32'0 0.0
2018-May-21 07:29N 53°35' E 008°32'0 0.0
2018-May-21 06:59N 53°35' E 008°32'0 0.0
2018-May-21 06:29N 53°35' E 008°32'0 0.0
2018-May-21 05:59N 53°35' E 008°32'0 0.0
2018-May-21 05:29N 53°35' E 008°32'0 0.0
2018-May-21 04:59N 53°35' E 008°32'0 0.0
2018-May-21 04:29N 53°35' E 008°32'0 0.0
2018-May-21 03:59N 53°35' E 008°32'0 0.0
2018-May-21 03:29N 53°35' E 008°32'0 0.0
2018-May-21 02:59N 53°35' E 008°32'0 0.0
2018-May-21 02:29N 53°35' E 008°32'0 0.0
2018-May-21 01:59N 53°35' E 008°32'0 0.0
2018-May-21 01:29N 53°35' E 008°32'0 0.0
2018-May-21 00:59N 53°35' E 008°32'0 0.0
2018-May-21 00:29N 53°35' E 008°32'0 0.0
2018-May-20 23:59N 53°35' E 008°32'0 0.0
2018-May-20 23:29N 53°35' E 008°32'0 0.0
2018-May-20 22:59N 53°35' E 008°32'0 0.0
2018-May-20 22:29N 53°35' E 008°32'0 0.0
2018-May-20 21:59N 53°35' E 008°32'0 0.0
2018-May-20 21:29N 53°35' E 008°32'0 0.0
2018-May-20 20:59N 53°35' E 008°32'0 0.0
2018-May-20 20:29N 53°35' E 008°32'0 0.0
2018-May-20 19:59N 53°35' E 008°32'0 0.0
2018-May-20 19:29N 53°35' E 008°32'0 0.0
2018-May-20 18:59N 53°35' E 008°32'0 0.0
2018-May-20 18:29N 53°35' E 008°32'0 0.0
2018-May-20 17:59N 53°35' E 008°32'0 0.0
2018-May-20 17:29N 53°35' E 008°32'0 0.0
2018-May-20 16:59N 53°35' E 008°32'0 0.0
2018-May-20 16:29N 53°35' E 008°32'0 0.0
2018-May-20 15:59N 53°35' E 008°32'0 0.0
2018-May-20 15:29N 53°35' E 008°32'0 0.0
2018-May-20 14:59N 53°35' E 008°32'0 0.0
2018-May-20 14:29N 53°35' E 008°32'0 0.0
2018-May-20 13:59N 53°35' E 008°32'0 0.0
2018-May-20 13:26N 53°35' E 008°32'0 0.0
2018-May-20 12:59N 53°35' E 008°32'0 0.0
2018-May-20 12:29N 53°35' E 008°32'0 0.0
2018-May-20 11:59N 53°35' E 008°32'0 0.0
2018-May-20 11:29N 53°35' E 008°32'0 0.0
2018-May-20 10:59N 53°35' E 008°32'0 0.0
2018-May-20 10:29N 53°35' E 008°32'0 0.0
2018-May-20 09:59N 53°35' E 008°32'0 0.0
2018-May-20 09:29N 53°35' E 008°32'0 0.0
2018-May-20 08:59N 53°35' E 008°32'0 0.0
2018-May-20 08:26N 53°35' E 008°32'0 0.0
2018-May-20 07:59N 53°35' E 008°32'0 0.0
2018-May-20 07:29N 53°35' E 008°32'0 0.0
2018-May-20 06:59N 53°35' E 008°32'0 0.0
2018-May-20 06:29N 53°35' E 008°32'0 0.0
2018-May-20 05:59N 53°35' E 008°32'0 0.0
2018-May-20 05:29N 53°35' E 008°32'0 0.0
2018-May-20 04:59N 53°35' E 008°32'0 0.0
2018-May-20 04:29N 53°35' E 008°32'0 0.0
2018-May-20 03:59N 53°35' E 008°32'0 0.0
2018-May-20 03:29N 53°35' E 008°32'0 0.0
2018-May-20 02:59N 53°35' E 008°32'0 0.0
2018-May-20 02:29N 53°35' E 008°32'0 0.0
2018-May-20 01:59N 53°35' E 008°32'0 0.0
2018-May-20 01:29N 53°35' E 008°32'0 0.0
2018-May-20 00:59N 53°35' E 008°32'0 0.0
2018-May-20 00:29N 53°35' E 008°32'0 0.0
2018-May-19 23:59N 53°35' E 008°32'0 0.0
2018-May-19 23:29N 53°35' E 008°32'0 0.0
2018-May-19 22:59N 53°35' E 008°32'0 0.0
2018-May-19 22:26N 53°35' E 008°32'0 0.0
2018-May-19 21:59N 53°35' E 008°32'0 0.0
2018-May-19 21:29N 53°35' E 008°32'0 0.0
2018-May-19 20:59N 53°35' E 008°32'0 0.0
2018-May-19 20:29N 53°35' E 008°32'0 0.0
2018-May-19 19:59N 53°35' E 008°32'0 0.0
2018-May-19 19:29N 53°35' E 008°32'0 0.0
2018-May-19 18:59N 53°35' E 008°32'0 0.0
2018-May-19 18:30N 53°35' E 008°32'0 0.0
2018-May-19 18:00N 53°35' E 008°32'0 0.0
2018-May-19 17:30N 53°35' E 008°32'0 0.0
2018-May-19 17:00N 53°35' E 008°32'0 0.0
2018-May-19 16:30N 53°35' E 008°32'0 0.0
2018-May-19 16:00N 53°35' E 008°32'0 0.0
2018-May-19 15:30N 53°35' E 008°32'0 0.0
2018-May-19 15:00N 53°35' E 008°32'0 0.0
2018-May-19 14:31N 53°35' E 008°32'0 0.0
2018-May-19 14:01N 53°35' E 008°32'0 0.0
2018-May-19 13:30N 53°35' E 008°32'0 0.0
2018-May-19 13:00N 53°35' E 008°32'0 0.0
2018-May-19 12:30N 53°35' E 008°32'0 0.0
2018-May-19 12:00N 53°35' E 008°32'0 0.0
2018-May-19 11:30N 53°35' E 008°32'0 0.0
2018-May-19 11:00N 53°35' E 008°32'0 0.0
2018-May-19 10:30N 53°35' E 008°32'0 0.0
2018-May-19 10:00N 53°35' E 008°32'0 0.0
2018-May-19 09:30N 53°35' E 008°32'0 0.0
2018-May-19 09:00N 53°35' E 008°32'0 0.0
2018-May-19 08:30N 53°35' E 008°32'0 0.0
2018-May-19 08:00N 53°35' E 008°32'0 0.0
2018-May-19 07:30N 53°35' E 008°32'0 0.0
2018-May-19 07:00N 53°35' E 008°32'0 0.0
2018-May-19 06:30N 53°35' E 008°32'0 0.0
2018-May-19 06:00N 53°35' E 008°32'0 0.0
2018-May-19 05:30N 53°35' E 008°32'0 0.0
2018-May-19 05:00N 53°35' E 008°32'0 0.0
2018-May-19 04:30N 53°35' E 008°32'0 0.0
2018-May-19 04:00N 53°35' E 008°32'0 0.0
2018-May-19 03:30N 53°35' E 008°32'2 3.6
2018-May-19 03:00N 53°37' E 008°30'612.7
2018-May-19 02:30N 53°41' E 008°21'713.6
2018-May-19 02:00N 53°45' E 008°12'816.5
2018-May-19 01:31N 53°51' E 008°02'1712.1
2018-May-19 00:07N 53°55' E 007°34'416.8
2018-May-18 23:54N 53°54' E 007°28'6217.9
2018-May-18 20:25N 53°39' E 005°46'718.1
2018-May-18 20:00N 53°36' E 005°34'918.3
2018-May-18 19:30N 53°34' E 005°19'918.3
2018-May-18 19:00N 53°31' E 005°05'917.9
2018-May-18 18:30N 53°27' E 004°51'917.1
2018-May-18 18:00N 53°22' E 004°40'917.5
2018-May-18 17:30N 53°14' E 004°34'917.5
2018-May-18 17:00N 53°06' E 004°26'917.4
2018-May-18 16:30N 52°59' E 004°19'1017.5
2018-May-18 15:58N 52°50' E 004°13'918.9
2018-May-18 15:30N 52°43' E 004°05'919.0
2018-May-18 15:00N 52°34' E 003°57'918.5
2018-May-18 14:30N 52°26' E 003°53'918.1
2018-May-18 14:00N 52°17' E 003°52'918.2
2018-May-18 13:30N 52°08' E 003°54'510.6
2018-May-18 13:00N 52°02' E 003°56'714.2
2018-May-18 12:31N 51°58' E 004°05'3 5.5
2018-May-18 12:00N 51°59' E 004°01'1 2.4
2018-May-18 11:30N 51°57' E 004°00'0 0.9
2018-May-18 11:00N 51°57' E 003°60'0 0.0
2018-May-18 10:30N 51°57' E 003°60'0 0.0
2018-May-18 10:00N 51°57' E 003°60'0 0.0
2018-May-18 09:30N 51°57' E 003°60'0 0.0
2018-May-18 09:00N 51°57' E 003°60'0 0.0
2018-May-18 08:30N 51°57' E 003°60'0 0.0
2018-May-18 08:00N 51°57' E 003°59'0 0.0
2018-May-18 07:30N 51°57' E 003°60'0 0.0
2018-May-18 07:00N 51°57' E 003°60'0 0.0
2018-May-18 06:30N 51°57' E 003°60'0 0.0
2018-May-18 06:00N 51°57' E 003°60'0 0.0
2018-May-18 05:24N 51°57' E 003°60'0 0.0
2018-May-18 05:00N 51°57' E 003°60'0 0.0
2018-May-18 04:30N 51°57' E 003°59'0 0.0
2018-May-18 03:58N 51°57' E 003°60'0 0.0
2018-May-18 03:28N 51°57' E 003°59'0 0.0
2018-May-18 02:58N 51°57' E 003°59'0 0.0
2018-May-18 02:28N 51°57' E 003°59'0 0.0
2018-May-18 01:55N 51°57' E 003°59'0 0.0
2018-May-18 01:28N 51°57' E 003°60'0 0.0
2018-May-18 00:58N 51°57' E 003°60'0 0.0
2018-May-18 00:28N 51°57' E 003°60'0 0.0
2018-May-17 23:58N 51°57' E 003°60'0 0.0
2018-May-17 23:28N 51°57' E 003°60'0 0.0
2018-May-17 22:58N 51°57' E 003°59'0 0.0
2018-May-17 22:28N 51°57' E 003°59'0 0.0
2018-May-17 21:58N 51°57' E 003°60'0 0.0
2018-May-17 21:28N 51°57' E 003°60'0 0.0
2018-May-17 20:58N 51°57' E 003°60'0 0.0
2018-May-17 20:28N 51°57' E 003°60'0 0.0
2018-May-17 19:58N 51°57' E 003°60'0 0.0
2018-May-17 19:28N 51°57' E 003°60'0 0.0
2018-May-17 18:58N 51°57' E 003°60'0 0.0
2018-May-17 18:28N 51°57' E 003°60'0 0.0
2018-May-17 17:52N 51°57' E 003°59'0 0.0
2018-May-17 17:28N 51°57' E 003°60'0 0.0
2018-May-17 16:58N 51°57' E 003°60'0 0.0
2018-May-17 16:28N 51°57' E 003°60'0 0.0
2018-May-17 15:58N 51°57' E 003°59'0 0.0
2018-May-17 15:28N 51°57' E 003°59'0 0.0
2018-May-17 14:58N 51°57' E 003°60'0 0.0
2018-May-17 14:28N 51°57' E 003°60'0 0.0
2018-May-17 13:58N 51°57' E 003°59'0 0.0
2018-May-17 13:28N 51°57' E 003°59'0 0.0
2018-May-17 12:58N 51°57' E 003°60'0 0.6
2018-May-17 12:29N 51°57' E 003°60'2 3.3
2018-May-17 12:01N 51°58' E 004°02'2 3.8
2018-May-17 11:31N 51°59' E 004°05'4 8.3
2018-May-17 11:00N 51°60' E 003°58'510.5
2018-May-17 10:30N 51°59' E 003°50'4 7.1
2018-May-17 10:01N 51°58' E 003°44'611.1
2018-May-17 09:30N 51°57' E 003°36'5 9.6
2018-May-17 09:00N 51°56' E 003°28'4 6.3
2018-May-17 08:27N 51°53' E 003°25'0 0.2
2018-May-17 07:58N 51°53' E 003°25'0 0.0
2018-May-17 07:13N 51°53' E 003°25'0 0.0
2018-May-17 06:58N 51°53' E 003°25'0 0.0
2018-May-17 06:19N 51°53' E 003°25'0 0.2
2018-May-17 04:41N 51°53' E 003°26'0 0.1
2018-May-17 04:21N 51°53' E 003°26'0 0.0
2018-May-17 04:00N 51°53' E 003°26'0 0.0
2018-May-17 03:23N 51°53' E 003°26'0 0.0
2018-May-17 02:58N 51°53' E 003°26'0 0.1
2018-May-17 02:21N 51°53' E 003°26'0 0.3
2018-May-17 01:58N 51°53' E 003°26'0 0.2
2018-May-17 01:13N 51°53' E 003°25'0 0.2
2018-May-17 00:55N 51°53' E 003°25'0 0.0
2018-May-17 00:23N 51°53' E 003°25'0 0.1
2018-May-17 00:00N 51°53' E 003°25'0 0.0
2018-May-16 23:25N 51°53' E 003°25'0 0.0
2018-May-16 22:38N 51°53' E 003°25'0 0.0
2018-May-16 22:17N 51°53' E 003°25'0 0.0
2018-May-16 21:58N 51°53' E 003°25'0 0.0
2018-May-16 21:28N 51°53' E 003°25'1 1.3
2018-May-16 21:00N 51°52' E 003°25'4 8.4
2018-May-16 20:30N 51°50' E 003°19'713.1
2018-May-16 20:00N 51°45' E 003°13'4 8.0
2018-May-16 19:30N 51°41' E 003°13'816.0
2018-May-16 19:00N 51°33' E 003°08'816.0
2018-May-16 18:30N 51°27' E 003°00'815.4
2018-May-16 18:00N 51°24' E 003°12'1121.7
2018-May-16 17:30N 51°25' E 003°29'713.9
2018-May-16 17:01N 51°26' E 003°40'714.2
2018-May-16 16:30N 51°21' E 003°48'714.4
2018-May-16 16:01N 51°25' E 003°58'4 8.5
2018-May-16 15:30N 51°23' E 004°03'612.0
2018-May-16 15:01N 51°23' E 004°13'4 8.9
2018-May-16 14:30N 51°19' E 004°16'1 2.7
2018-May-16 14:00N 51°18' E 004°16'0 0.0
2018-May-16 13:29N 51°18' E 004°16'0 0.0
2018-May-16 12:59N 51°18' E 004°16'0 0.0
2018-May-16 12:29N 51°18' E 004°16'0 0.0
2018-May-16 11:59N 51°18' E 004°16'0 0.0
2018-May-16 11:29N 51°18' E 004°16'0 0.0
2018-May-16 10:59N 51°18' E 004°16'0 0.0
2018-May-16 10:29N 51°18' E 004°16'0 0.0
2018-May-16 09:56N 51°18' E 004°16'0 0.0
2018-May-16 09:29N 51°18' E 004°16'0 0.0
2018-May-16 08:56N 51°18' E 004°16'0 0.0
2018-May-16 08:26N 51°18' E 004°16'0 0.0
2018-May-16 07:59N 51°18' E 004°16'0 0.0
2018-May-16 07:26N 51°18' E 004°16'0 0.0
2018-May-16 06:53N 51°18' E 004°16'0 0.0
2018-May-16 06:26N 51°18' E 004°16'0 0.0
2018-May-16 05:59N 51°18' E 004°16'0 0.0
2018-May-16 05:29N 51°18' E 004°16'0 0.0
2018-May-16 04:56N 51°18' E 004°16'0 0.0
2018-May-16 04:29N 51°18' E 004°16'0 0.0
2018-May-16 03:56N 51°18' E 004°16'0 0.0
2018-May-16 03:29N 51°18' E 004°16'0 0.0
2018-May-16 02:56N 51°18' E 004°16'0 0.0
2018-May-16 02:29N 51°18' E 004°16'0 0.0
2018-May-16 01:53N 51°18' E 004°16'0 0.0
2018-May-16 01:29N 51°18' E 004°16'0 0.0
2018-May-16 00:56N 51°18' E 004°16'0 0.0
2018-May-16 00:29N 51°18' E 004°16'0 0.0
2018-May-15 23:59N 51°18' E 004°16'0 0.0
2018-May-15 23:29N 51°18' E 004°16'0 0.0
2018-May-15 22:59N 51°18' E 004°16'0 0.0
2018-May-15 22:29N 51°18' E 004°16'0 0.0
2018-May-15 21:56N 51°18' E 004°16'0 0.0
2018-May-15 21:29N 51°18' E 004°16'0 0.0
2018-May-15 20:56N 51°18' E 004°16'0 0.0
2018-May-15 20:29N 51°18' E 004°16'0 0.0
2018-May-15 19:59N 51°18' E 004°16'0 0.0
2018-May-15 19:23N 51°18' E 004°16'0 0.0
2018-May-15 18:56N 51°18' E 004°16'0 0.0
2018-May-15 18:29N 51°18' E 004°16'0 0.0
2018-May-15 17:59N 51°18' E 004°16'0 0.0
2018-May-15 17:29N 51°18' E 004°16'0 0.0
2018-May-15 16:53N 51°18' E 004°16'0 0.0
2018-May-15 16:23N 51°18' E 004°16'0 0.0
2018-May-15 15:59N 51°18' E 004°16'0 0.0
2018-May-15 15:26N 51°18' E 004°16'0 0.0
2018-May-15 14:59N 51°18' E 004°16'0 0.0
2018-May-15 14:29N 51°18' E 004°16'0 0.0
2018-May-15 14:00N 51°18' E 004°16'1 1.8
2018-May-15 13:31N 51°18' E 004°16'3 7.0
2018-May-15 13:00N 51°21' E 004°14'510.9
2018-May-15 12:30N 51°22' E 004°05'510.9
2018-May-15 12:01N 51°26' E 003°58'713.5
2018-May-15 11:30N 51°21' E 003°51'612.5
2018-May-15 11:00N 51°24' E 003°43'5 9.9
2018-May-15 10:30N 51°26' E 003°35'714.4
2018-May-15 10:00N 51°24' E 003°24'917.4
2018-May-15 09:30N 51°24' E 003°09'816.4
2018-May-15 09:00N 51°25' E 002°57'815.2
2018-May-15 08:30N 51°23' E 002°45'3 7.0
2018-May-15 08:01N 51°23' E 002°39'2 4.8
2018-May-15 07:31N 51°25' E 002°37'0 0.1
2018-May-15 06:58N 51°25' E 002°37'0 0.0
2018-May-15 06:28N 51°25' E 002°37'0 0.0
2018-May-15 05:50N 51°25' E 002°37'0 0.0
2018-May-15 05:20N 51°25' E 002°37'0 0.1
2018-May-15 04:59N 51°25' E 002°37'0 0.0
2018-May-15 04:26N 51°25' E 002°37'0 0.0
2018-May-15 03:56N 51°25' E 002°37'0 0.1
2018-May-15 03:25N 51°25' E 002°37'0 0.4
2018-May-15 02:58N 51°25' E 002°37'0 0.2
2018-May-15 02:25N 51°25' E 002°37'0 0.0
2018-May-15 01:50N 51°25' E 002°37'0 0.0
2018-May-15 01:28N 51°25' E 002°37'0 0.0
2018-May-15 01:00N 51°25' E 002°37'0 0.0
2018-May-15 00:25N 51°25' E 002°37'0 0.3
2018-May-14 23:58N 51°25' E 002°37'0 0.2
2018-May-14 23:20N 51°25' E 002°37'0 0.1
2018-May-14 22:56N 51°25' E 002°37'0 0.0
2018-May-14 22:26N 51°25' E 002°37'0 0.1
2018-May-14 21:44N 51°25' E 002°37'0 0.0
2018-May-14 21:26N 51°25' E 002°37'0 0.1
2018-May-14 20:53N 51°25' E 002°37'0 0.0
2018-May-14 20:20N 51°25' E 002°37'0 0.0
2018-May-14 19:59N 51°25' E 002°37'0 0.0
2018-May-14 19:29N 51°25' E 002°37'0 0.0
2018-May-14 18:56N 51°25' E 002°37'0 0.0
2018-May-14 18:29N 51°25' E 002°37'0 0.0
2018-May-14 17:54N 51°25' E 002°37'0 0.0
2018-May-14 17:21N 51°25' E 002°37'0 0.1
2018-May-14 17:00N 51°25' E 002°37'0 0.1
2018-May-14 16:24N 51°25' E 002°37'0 0.0
2018-May-14 15:55N 51°25' E 002°37'0 0.0
2018-May-14 15:30N 51°25' E 002°37'0 0.0
2018-May-14 14:57N 51°25' E 002°37'0 0.1
2018-May-14 14:27N 51°25' E 002°37'0 0.1
2018-May-14 14:00N 51°25' E 002°37'0 0.1
2018-May-14 13:30N 51°25' E 002°37'0 0.0
2018-May-14 13:00N 51°25' E 002°37'0 0.0
2018-May-14 12:29N 51°25' E 002°37'0 0.1
2018-May-14 11:54N 51°25' E 002°37'0 0.1
2018-May-14 11:30N 51°25' E 002°37'0 0.1
2018-May-14 11:00N 51°25' E 002°37'0 0.1
2018-May-14 10:28N 51°25' E 002°37'0 0.1
2018-May-14 09:58N 51°25' E 002°37'0 0.0
2018-May-14 09:28N 51°25' E 002°37'0 0.0
2018-May-14 08:55N 51°25' E 002°37'0 1.0
2018-May-14 08:28N 51°24' E 002°37'3 7.0
2018-May-14 08:00N 51°23' E 002°32'5 9.7
2018-May-14 07:30N 51°21' E 002°25'510.0
2018-May-14 07:00N 51°19' E 002°18'5 9.8
2018-May-14 06:30N 51°16' E 002°11'510.1
2018-May-14 06:00N 51°13' E 002°05'510.5
2018-May-14 05:30N 51°11' E 001°57'610.6
2018-May-14 04:59N 51°08' E 001°49'510.6
2018-May-14 04:28N 51°05' E 001°42'511.0
2018-May-14 04:00N 51°02' E 001°36'611.9
2018-May-14 03:30N 50°57' E 001°30'612.1
2018-May-14 03:00N 50°52' E 001°26'612.3
2018-May-14 02:30N 50°46' E 001°23'2212.1
2018-May-14 00:41N 50°30' E 000°58'1112.6
2018-May-13 23:51N 50°27' E 000°42'512.6
2018-May-13 23:24N 50°25' E 000°34'512.7
2018-May-13 23:00N 50°23' E 000°27'612.7
2018-May-13 22:30N 50°22' E 000°17'613.1
2018-May-13 22:00N 50°19' E 000°08'612.5
2018-May-13 21:30N 50°16' W 000°00'713.4
2018-May-13 21:00N 50°09' W 000°03'713.5
2018-May-13 20:30N 50°03' W 000°05'713.3
2018-May-13 20:00N 49°56' W 000°06'  
Track history (hours):
 
Tides and Currents Weather Stations Pressure Air Temp Water Temp Dewpoint Dewpoint Depression Visibility Wind Speed Wind Dir Waves Ship Positions

CMA CGM White Shark

Last reported at 2018-May-23 19:38 UTC. Time now 2018-May-25 05:12 UTC.
Position N 49°49' W 011°29'.

Length 294 m; draft 12.5 m.

Type: Ship (hazmat cat D). MMSI: 235052035.

Date/timePositionNaut miles runAvg speedWind from/ knotsBaromVisibWave heightAir tempDewpointWater temp
2018-May-23 19:38N 49°49' W 011°29'318.7
2018-May-23 19:30N 49°49' W 011°25'918.9
2018-May-23 19:00N 49°49' W 011°11'1618.9
2018-May-23 18:08N 49°50' W 010°45'1019.2
2018-May-23 17:37N 49°49' W 010°30'719.2
2018-May-23 17:16N 49°49' W 010°20'519.4
2018-May-23 17:01N 49°49' W 010°12'1019.2
2018-May-23 16:29N 49°48' W 009°56'919.4
2018-May-23 16:00N 49°48' W 009°42'1019.6
2018-May-23 15:30N 49°48' W 009°27'5819.9
2018-May-23 12:37N 49°46' W 007°58'1219.7
2018-May-23 12:02N 49°45' W 007°40'119.7
2018-May-23 12:00N 49°45' W 007°39'9119.7
2018-May-23 07:25N 49°41' W 005°19'820.4
2018-May-23 07:00N 49°41' W 005°06'1120.4
2018-May-23 06:28N 49°42' W 004°49'1020.8
2018-May-23 05:58N 49°45' W 004°34'1020.8
2018-May-23 05:30N 49°47' W 004°19'1020.8
2018-May-23 05:00N 49°49' W 004°04'1020.5
2018-May-23 04:30N 49°51' W 003°48'1020.2
2018-May-23 04:01N 49°53' W 003°33'1019.9
2018-May-23 03:31N 49°55' W 003°18'1019.3
2018-May-23 03:01N 49°58' W 003°03'919.0
2018-May-23 02:31N 50°00' W 002°49'918.4
2018-May-23 02:01N 50°03' W 002°35'2418.1
2018-May-23 00:42N 50°09' W 001°59'418.2
2018-May-23 00:28N 50°11' W 001°53'818.5
2018-May-23 00:00N 50°14' W 001°41'1019.0
2018-May-22 23:30N 50°16' W 001°27'1019.9
2018-May-22 23:00N 50°18' W 001°11'1121.0
2018-May-22 22:30N 50°21' W 000°55'1121.4
2018-May-22 22:00N 50°24' W 000°39'1021.3
2018-May-22 21:30N 50°27' W 000°23'1121.2
2018-May-22 21:00N 50°30' W 000°07'1121.2
2018-May-22 20:30N 50°33' E 000°09'1121.1
2018-May-22 20:00N 50°36' E 000°25'1020.5
2018-May-22 19:30N 50°40' E 000°39'1020.2
2018-May-22 19:00N 50°46' E 000°52'1019.6
2018-May-22 18:30N 50°51' E 001°05'918.9
2018-May-22 18:00N 50°58' E 001°16'918.5
2018-May-22 17:30N 51°04' E 001°27'917.7
2018-May-22 17:00N 51°09' E 001°39'1817.5
2018-May-22 16:00N 51°23' E 001°55'918.9
2018-May-22 15:31N 51°31' E 002°04'1019.1
2018-May-22 15:00N 51°38' E 002°14'1119.5
2018-May-22 14:26N 51°47' E 002°26'819.5
2018-May-22 14:00N 51°53' E 002°35'1019.4
2018-May-22 13:30N 52°00' E 002°44'1019.2
2018-May-22 13:00N 52°08' E 002°55'1019.1
2018-May-22 12:30N 52°15' E 003°04'1018.7
2018-May-22 11:59N 52°23' E 003°13'1118.2
2018-May-22 11:23N 52°32' E 003°23'1517.6
2018-May-22 10:31N 52°44' E 003°39'117.4
2018-May-22 10:29N 52°45' E 003°40'1017.2
2018-May-22 09:56N 52°52' E 003°50'716.8
2018-May-22 09:30N 52°57' E 003°58'816.9
2018-May-22 09:00N 53°03' E 004°09'816.9
2018-May-22 08:30N 53°08' E 004°19'816.5
2018-May-22 08:00N 53°15' E 004°27'917.7
2018-May-22 07:29N 53°23' E 004°33'817.2
2018-May-22 07:00N 53°30' E 004°42'1019.2
2018-May-22 06:30N 53°32' E 004°57'1019.2
2018-May-22 06:00N 53°35' E 005°13'1019.1
2018-May-22 05:30N 53°39' E 005°28'918.8
2018-May-22 05:00N 53°43' E 005°42'918.5
2018-May-22 04:30N 53°46' E 005°57'918.2
2018-May-22 04:00N 53°48' E 006°12'917.8
2018-May-22 03:30N 53°51' E 006°26'917.6
2018-May-22 03:00N 53°53' E 006°41'917.3
2018-May-22 02:30N 53°55' E 006°55'917.1
2018-May-22 02:00N 53°57' E 007°09'816.8
2018-May-22 01:30N 53°58' E 007°23'816.3
2018-May-22 01:00N 53°60' E 007°37'816.6
2018-May-22 00:30N 53°53' E 007°46'713.4
2018-May-21 23:59N 53°52' E 007°57'714.9
2018-May-21 23:30N 53°48' E 008°08'815.8
2018-May-21 23:00N 53°43' E 008°18'816.4
2018-May-21 22:30N 53°37' E 008°28'3 5.8
2018-May-21 22:00N 53°35' E 008°32'0 0.0
2018-May-21 21:28N 53°35' E 008°32'0 0.0
2018-May-21 20:55N 53°35' E 008°32'0 0.0
2018-May-21 20:28N 53°35' E 008°32'0 0.0
2018-May-21 19:58N 53°35' E 008°32'0 0.0
2018-May-21 19:28N 53°35' E 008°32'0 0.0
2018-May-21 18:58N 53°35' E 008°32'0 0.0
2018-May-21 18:29N 53°35' E 008°32'0 0.0
2018-May-21 17:59N 53°35' E 008°32'0 0.0
2018-May-21 17:29N 53°35' E 008°32'0 0.0
2018-May-21 16:59N 53°35' E 008°32'0 0.0
2018-May-21 16:23N 53°35' E 008°32'0 0.0
2018-May-21 15:59N 53°35' E 008°32'0 0.0
2018-May-21 15:29N 53°35' E 008°32'0 0.0
2018-May-21 14:59N 53°35' E 008°32'0 0.0
2018-May-21 14:29N 53°35' E 008°32'0 0.0
2018-May-21 13:59N 53°35' E 008°32'0 0.0
2018-May-21 13:29N 53°35' E 008°32'0 0.0
2018-May-21 12:59N 53°35' E 008°32'0 0.0
2018-May-21 12:29N 53°35' E 008°32'0 0.0
2018-May-21 11:59N 53°35' E 008°32'0 0.0
2018-May-21 11:29N 53°35' E 008°32'0 0.0
2018-May-21 10:59N 53°35' E 008°32'0 0.0
2018-May-21 10:29N 53°35' E 008°32'0 0.0
2018-May-21 09:59N 53°35' E 008°32'0 0.0
2018-May-21 09:29N 53°35' E 008°32'0 0.0
2018-May-21 08:59N 53°35' E 008°32'0 0.0
2018-May-21 08:29N 53°35' E 008°32'0 0.0
2018-May-21 07:56N 53°35' E 008°32'0 0.0
2018-May-21 07:29N 53°35' E 008°32'0 0.0
2018-May-21 06:59N 53°35' E 008°32'0 0.0
2018-May-21 06:29N 53°35' E 008°32'0 0.0
2018-May-21 05:59N 53°35' E 008°32'0 0.0
2018-May-21 05:29N 53°35' E 008°32'0 0.0
2018-May-21 04:59N 53°35' E 008°32'0 0.0
2018-May-21 04:29N 53°35' E 008°32'0 0.0
2018-May-21 03:59N 53°35' E 008°32'0 0.0
2018-May-21 03:29N 53°35' E 008°32'0 0.0
2018-May-21 02:59N 53°35' E 008°32'0 0.0
2018-May-21 02:29N 53°35' E 008°32'0 0.0
2018-May-21 01:59N 53°35' E 008°32'0 0.0
2018-May-21 01:29N 53°35' E 008°32'0 0.0
2018-May-21 00:59N 53°35' E 008°32'0 0.0
2018-May-21 00:29N 53°35' E 008°32'0 0.0
2018-May-20 23:59N 53°35' E 008°32'0 0.0
2018-May-20 23:29N 53°35' E 008°32'0 0.0
2018-May-20 22:59N 53°35' E 008°32'0 0.0
2018-May-20 22:29N 53°35' E 008°32'0 0.0
2018-May-20 21:59N 53°35' E 008°32'0 0.0
2018-May-20 21:29N 53°35' E 008°32'0 0.0
2018-May-20 20:59N 53°35' E 008°32'0 0.0
2018-May-20 20:29N 53°35' E 008°32'0 0.0
2018-May-20 19:59N 53°35' E 008°32'0 0.0
2018-May-20 19:29N 53°35' E 008°32'0 0.0
2018-May-20 18:59N 53°35' E 008°32'0 0.0
2018-May-20 18:29N 53°35' E 008°32'0 0.0
2018-May-20 17:59N 53°35' E 008°32'0 0.0
2018-May-20 17:29N 53°35' E 008°32'0 0.0
2018-May-20 16:59N 53°35' E 008°32'0 0.0
2018-May-20 16:29N 53°35' E 008°32'0 0.0
2018-May-20 15:59N 53°35' E 008°32'0 0.0
2018-May-20 15:29N 53°35' E 008°32'0 0.0
2018-May-20 14:59N 53°35' E 008°32'0 0.0
2018-May-20 14:29N 53°35' E 008°32'0 0.0
2018-May-20 13:59N 53°35' E 008°32'0 0.0
2018-May-20 13:26N 53°35' E 008°32'0 0.0
2018-May-20 12:59N 53°35' E 008°32'0 0.0
2018-May-20 12:29N 53°35' E 008°32'0 0.0
2018-May-20 11:59N 53°35' E 008°32'0 0.0
2018-May-20 11:29N 53°35' E 008°32'0 0.0
2018-May-20 10:59N 53°35' E 008°32'0 0.0
2018-May-20 10:29N 53°35' E 008°32'0 0.0
2018-May-20 09:59N 53°35' E 008°32'0 0.0
2018-May-20 09:29N 53°35' E 008°32'0 0.0
2018-May-20 08:59N 53°35' E 008°32'0 0.0
2018-May-20 08:26N 53°35' E 008°32'0 0.0
2018-May-20 07:59N 53°35' E 008°32'0 0.0
2018-May-20 07:29N 53°35' E 008°32'0 0.0
2018-May-20 06:59N 53°35' E 008°32'0 0.0
2018-May-20 06:29N 53°35' E 008°32'0 0.0
2018-May-20 05:59N 53°35' E 008°32'0 0.0
2018-May-20 05:29N 53°35' E 008°32'0 0.0
2018-May-20 04:59N 53°35' E 008°32'0 0.0
2018-May-20 04:29N 53°35' E 008°32'0 0.0
2018-May-20 03:59N 53°35' E 008°32'0 0.0
2018-May-20 03:29N 53°35' E 008°32'0 0.0
2018-May-20 02:59N 53°35' E 008°32'0 0.0
2018-May-20 02:29N 53°35' E 008°32'0 0.0
2018-May-20 01:59N 53°35' E 008°32'0 0.0
2018-May-20 01:29N 53°35' E 008°32'0 0.0
2018-May-20 00:59N 53°35' E 008°32'0 0.0
2018-May-20 00:29N 53°35' E 008°32'0 0.0
2018-May-19 23:59N 53°35' E 008°32'0 0.0
2018-May-19 23:29N 53°35' E 008°32'0 0.0
2018-May-19 22:59N 53°35' E 008°32'0 0.0
2018-May-19 22:26N 53°35' E 008°32'0 0.0
2018-May-19 21:59N 53°35' E 008°32'0 0.0
2018-May-19 21:29N 53°35' E 008°32'0 0.0
2018-May-19 20:59N 53°35' E 008°32'0 0.0
2018-May-19 20:29N 53°35' E 008°32'0 0.0
2018-May-19 19:59N 53°35' E 008°32'0 0.0
2018-May-19 19:29N 53°35' E 008°32'0 0.0
2018-May-19 18:59N 53°35' E 008°32'0 0.0
2018-May-19 18:30N 53°35' E 008°32'0 0.0
2018-May-19 18:00N 53°35' E 008°32'0 0.0
2018-May-19 17:30N 53°35' E 008°32'0 0.0
2018-May-19 17:00N 53°35' E 008°32'0 0.0
2018-May-19 16:30N 53°35' E 008°32'0 0.0
2018-May-19 16:00N 53°35' E 008°32'0 0.0
2018-May-19 15:30N 53°35' E 008°32'0 0.0
2018-May-19 15:00N 53°35' E 008°32'0 0.0
2018-May-19 14:31N 53°35' E 008°32'0 0.0
2018-May-19 14:01N 53°35' E 008°32'0 0.0
2018-May-19 13:30N 53°35' E 008°32'0 0.0
2018-May-19 13:00N 53°35' E 008°32'0 0.0
2018-May-19 12:30N 53°35' E 008°32'0 0.0
2018-May-19 12:00N 53°35' E 008°32'0 0.0
2018-May-19 11:30N 53°35' E 008°32'0 0.0
2018-May-19 11:00N 53°35' E 008°32'0 0.0
2018-May-19 10:30N 53°35' E 008°32'0 0.0
2018-May-19 10:00N 53°35' E 008°32'0 0.0
2018-May-19 09:30N 53°35' E 008°32'0 0.0
2018-May-19 09:00N 53°35' E 008°32'0 0.0
2018-May-19 08:30N 53°35' E 008°32'0 0.0
2018-May-19 08:00N 53°35' E 008°32'0 0.0
2018-May-19 07:30N 53°35' E 008°32'0 0.0
2018-May-19 07:00N 53°35' E 008°32'0 0.0
2018-May-19 06:30N 53°35' E 008°32'0 0.0
2018-May-19 06:00N 53°35' E 008°32'0 0.0
2018-May-19 05:30N 53°35' E 008°32'0 0.0
2018-May-19 05:00N 53°35' E 008°32'0 0.0
2018-May-19 04:30N 53°35' E 008°32'0 0.0
2018-May-19 04:00N 53°35' E 008°32'0 0.0
2018-May-19 03:30N 53°35' E 008°32'2 3.6
2018-May-19 03:00N 53°37' E 008°30'612.7
2018-May-19 02:30N 53°41' E 008°21'713.6
2018-May-19 02:00N 53°45' E 008°12'816.5
2018-May-19 01:31N 53°51' E 008°02'1712.1
2018-May-19 00:07N 53°55' E 007°34'416.8
2018-May-18 23:54N 53°54' E 007°28'6217.9
2018-May-18 20:25N 53°39' E 005°46'718.1
2018-May-18 20:00N 53°36' E 005°34'918.3
2018-May-18 19:30N 53°34' E 005°19'918.3
2018-May-18 19:00N 53°31' E 005°05'917.9
2018-May-18 18:30N 53°27' E 004°51'917.1
2018-May-18 18:00N 53°22' E 004°40'917.5
2018-May-18 17:30N 53°14' E 004°34'917.5
2018-May-18 17:00N 53°06' E 004°26'917.4
2018-May-18 16:30N 52°59' E 004°19'1017.5
2018-May-18 15:58N 52°50' E 004°13'918.9
2018-May-18 15:30N 52°43' E 004°05'919.0
2018-May-18 15:00N 52°34' E 003°57'918.5
2018-May-18 14:30N 52°26' E 003°53'918.1
2018-May-18 14:00N 52°17' E 003°52'918.2
2018-May-18 13:30N 52°08' E 003°54'510.6
2018-May-18 13:00N 52°02' E 003°56'714.2
2018-May-18 12:31N 51°58' E 004°05'3 5.5
2018-May-18 12:00N 51°59' E 004°01'1 2.4
2018-May-18 11:30N 51°57' E 004°00'0 0.9
2018-May-18 11:00N 51°57' E 003°60'0 0.0
2018-May-18 10:30N 51°57' E 003°60'0 0.0
2018-May-18 10:00N 51°57' E 003°60'0 0.0
2018-May-18 09:30N 51°57' E 003°60'0 0.0
2018-May-18 09:00N 51°57' E 003°60'0 0.0
2018-May-18 08:30N 51°57' E 003°60'0 0.0
2018-May-18 08:00N 51°57' E 003°59'0 0.0
2018-May-18 07:30N 51°57' E 003°60'0 0.0
2018-May-18 07:00N 51°57' E 003°60'0 0.0
2018-May-18 06:30N 51°57' E 003°60'0 0.0
2018-May-18 06:00N 51°57' E 003°60'0 0.0
2018-May-18 05:24N 51°57' E 003°60'0 0.0
2018-May-18 05:00N 51°57' E 003°60'0 0.0
2018-May-18 04:30N 51°57' E 003°59'0 0.0
2018-May-18 03:58N 51°57' E 003°60'0 0.0
2018-May-18 03:28N 51°57' E 003°59'0 0.0
2018-May-18 02:58N 51°57' E 003°59'0 0.0
2018-May-18 02:28N 51°57' E 003°59'0 0.0
2018-May-18 01:55N 51°57' E 003°59'0 0.0
2018-May-18 01:28N 51°57' E 003°60'0 0.0
2018-May-18 00:58N 51°57' E 003°60'0 0.0
2018-May-18 00:28N 51°57' E 003°60'0 0.0
2018-May-17 23:58N 51°57' E 003°60'0 0.0
2018-May-17 23:28N 51°57' E 003°60'0 0.0
2018-May-17 22:58N 51°57' E 003°59'0 0.0
2018-May-17 22:28N 51°57' E 003°59'0 0.0
2018-May-17 21:58N 51°57' E 003°60'0 0.0
2018-May-17 21:28N 51°57' E 003°60'0 0.0
2018-May-17 20:58N 51°57' E 003°60'0 0.0
2018-May-17 20:28N 51°57' E 003°60'0 0.0
2018-May-17 19:58N 51°57' E 003°60'0 0.0
2018-May-17 19:28N 51°57' E 003°60'0 0.0
2018-May-17 18:58N 51°57' E 003°60'0 0.0
2018-May-17 18:28N 51°57' E 003°60'0 0.0
2018-May-17 17:52N 51°57' E 003°59'0 0.0
2018-May-17 17:28N 51°57' E 003°60'0 0.0
2018-May-17 16:58N 51°57' E 003°60'0 0.0
2018-May-17 16:28N 51°57' E 003°60'0 0.0
2018-May-17 15:58N 51°57' E 003°59'0 0.0
2018-May-17 15:28N 51°57' E 003°59'0 0.0
2018-May-17 14:58N 51°57' E 003°60'0 0.0
2018-May-17 14:28N 51°57' E 003°60'0 0.0
2018-May-17 13:58N 51°57' E 003°59'0 0.0
2018-May-17 13:28N 51°57' E 003°59'0 0.0
2018-May-17 12:58N 51°57' E 003°60'0 0.6
2018-May-17 12:29N 51°57' E 003°60'2 3.3
2018-May-17 12:01N 51°58' E 004°02'2 3.8
2018-May-17 11:31N 51°59' E 004°05'4 8.3
2018-May-17 11:00N 51°60' E 003°58'510.5
2018-May-17 10:30N 51°59' E 003°50'4 7.1
2018-May-17 10:01N 51°58' E 003°44'611.1
2018-May-17 09:30N 51°57' E 003°36'5 9.6
2018-May-17 09:00N 51°56' E 003°28'4 6.3
2018-May-17 08:27N 51°53' E 003°25'0 0.2
2018-May-17 07:58N 51°53' E 003°25'0 0.0
2018-May-17 07:13N 51°53' E 003°25'0 0.0
2018-May-17 06:58N 51°53' E 003°25'0 0.0
2018-May-17 06:19N 51°53' E 003°25'0 0.2
2018-May-17 04:41N 51°53' E 003°26'0 0.1
2018-May-17 04:21N 51°53' E 003°26'0 0.0
2018-May-17 04:00N 51°53' E 003°26'0 0.0
2018-May-17 03:23N 51°53' E 003°26'0 0.0
2018-May-17 02:58N 51°53' E 003°26'0 0.1
2018-May-17 02:21N 51°53' E 003°26'0 0.3
2018-May-17 01:58N 51°53' E 003°26'0 0.2
2018-May-17 01:13N 51°53' E 003°25'0 0.2
2018-May-17 00:55N 51°53' E 003°25'0 0.0
2018-May-17 00:23N 51°53' E 003°25'0 0.1
2018-May-17 00:00N 51°53' E 003°25'0 0.0
2018-May-16 23:25N 51°53' E 003°25'0 0.0
2018-May-16 22:38N 51°53' E 003°25'0 0.0
2018-May-16 22:17N 51°53' E 003°25'0 0.0
2018-May-16 21:58N 51°53' E 003°25'0 0.0
2018-May-16 21:28N 51°53' E 003°25'1 1.3
2018-May-16 21:00N 51°52' E 003°25'4 8.4
2018-May-16 20:30N 51°50' E 003°19'713.1
2018-May-16 20:00N 51°45' E 003°13'4 8.0
2018-May-16 19:30N 51°41' E 003°13'816.0
2018-May-16 19:00N 51°33' E 003°08'816.0
2018-May-16 18:30N 51°27' E 003°00'815.4
2018-May-16 18:00N 51°24' E 003°12'1121.7
2018-May-16 17:30N 51°25' E 003°29'713.9
2018-May-16 17:01N 51°26' E 003°40'714.2
2018-May-16 16:30N 51°21' E 003°48'714.4
2018-May-16 16:01N 51°25' E 003°58'4 8.5
2018-May-16 15:30N 51°23' E 004°03'612.0
2018-May-16 15:01N 51°23' E 004°13'4 8.9
2018-May-16 14:30N 51°19' E 004°16'1 2.7
2018-May-16 14:00N 51°18' E 004°16'0 0.0
2018-May-16 13:29N 51°18' E 004°16'0 0.0
2018-May-16 12:59N 51°18' E 004°16'0 0.0
2018-May-16 12:29N 51°18' E 004°16'0 0.0
2018-May-16 11:59N 51°18' E 004°16'0 0.0
2018-May-16 11:29N 51°18' E 004°16'0 0.0
2018-May-16 10:59N 51°18' E 004°16'0 0.0
2018-May-16 10:29N 51°18' E 004°16'0 0.0
2018-May-16 09:56N 51°18' E 004°16'0 0.0
2018-May-16 09:29N 51°18' E 004°16'0 0.0
2018-May-16 08:56N 51°18' E 004°16'0 0.0
2018-May-16 08:26N 51°18' E 004°16'0 0.0
2018-May-16 07:59N 51°18' E 004°16'0 0.0
2018-May-16 07:26N 51°18' E 004°16'0 0.0
2018-May-16 06:53N 51°18' E 004°16'0 0.0
2018-May-16 06:26N 51°18' E 004°16'0 0.0
2018-May-16 05:59N 51°18' E 004°16'0 0.0
2018-May-16 05:29N 51°18' E 004°16'0 0.0
2018-May-16 04:56N 51°18' E 004°16'0 0.0
2018-May-16 04:29N 51°18' E 004°16'0 0.0
2018-May-16 03:56N 51°18' E 004°16'0 0.0
2018-May-16 03:29N 51°18' E 004°16'0 0.0
2018-May-16 02:56N 51°18' E 004°16'0 0.0
2018-May-16 02:29N 51°18' E 004°16'0 0.0
2018-May-16 01:53N 51°18' E 004°16'0 0.0
2018-May-16 01:29N 51°18' E 004°16'0 0.0
2018-May-16 00:56N 51°18' E 004°16'0 0.0
2018-May-16 00:29N 51°18' E 004°16'0 0.0
2018-May-15 23:59N 51°18' E 004°16'0 0.0
2018-May-15 23:29N 51°18' E 004°16'0 0.0
2018-May-15 22:59N 51°18' E 004°16'0 0.0
2018-May-15 22:29N 51°18' E 004°16'0 0.0
2018-May-15 21:56N 51°18' E 004°16'0 0.0
2018-May-15 21:29N 51°18' E 004°16'0 0.0
2018-May-15 20:56N 51°18' E 004°16'0 0.0
2018-May-15 20:29N 51°18' E 004°16'0 0.0
2018-May-15 19:59N 51°18' E 004°16'0 0.0
2018-May-15 19:23N 51°18' E 004°16'0 0.0
2018-May-15 18:56N 51°18' E 004°16'0 0.0
2018-May-15 18:29N 51°18' E 004°16'0 0.0
2018-May-15 17:59N 51°18' E 004°16'0 0.0
2018-May-15 17:29N 51°18' E 004°16'0 0.0
2018-May-15 16:53N 51°18' E 004°16'0 0.0
2018-May-15 16:23N 51°18' E 004°16'0 0.0
2018-May-15 15:59N 51°18' E 004°16'0 0.0
2018-May-15 15:26N 51°18' E 004°16'0 0.0
2018-May-15 14:59N 51°18' E 004°16'0 0.0
2018-May-15 14:29N 51°18' E 004°16'0 0.0
2018-May-15 14:00N 51°18' E 004°16'1 1.8
2018-May-15 13:31N 51°18' E 004°16'3 7.0
2018-May-15 13:00N 51°21' E 004°14'510.9
2018-May-15 12:30N 51°22' E 004°05'510.9
2018-May-15 12:01N 51°26' E 003°58'713.5
2018-May-15 11:30N 51°21' E 003°51'612.5
2018-May-15 11:00N 51°24' E 003°43'5 9.9
2018-May-15 10:30N 51°26' E 003°35'714.4
2018-May-15 10:00N 51°24' E 003°24'917.4
2018-May-15 09:30N 51°24' E 003°09'816.4
2018-May-15 09:00N 51°25' E 002°57'815.2
2018-May-15 08:30N 51°23' E 002°45'3 7.0
2018-May-15 08:01N 51°23' E 002°39'2 4.8
2018-May-15 07:31N 51°25' E 002°37'0 0.1
2018-May-15 06:58N 51°25' E 002°37'0 0.0
2018-May-15 06:28N 51°25' E 002°37'0 0.0
2018-May-15 05:50N 51°25' E 002°37'0 0.0
2018-May-15 05:20N 51°25' E 002°37'0 0.1
2018-May-15 04:59N 51°25' E 002°37'0 0.0
2018-May-15 04:26N 51°25' E 002°37'0 0.0
2018-May-15 03:56N 51°25' E 002°37'0 0.1
2018-May-15 03:25N 51°25' E 002°37'0 0.4
2018-May-15 02:58N 51°25' E 002°37'0 0.2
2018-May-15 02:25N 51°25' E 002°37'0 0.0
2018-May-15 01:50N 51°25' E 002°37'0 0.0
2018-May-15 01:28N 51°25' E 002°37'0 0.0
2018-May-15 01:00N 51°25' E 002°37'0 0.0
2018-May-15 00:25N 51°25' E 002°37'0 0.3
2018-May-14 23:58N 51°25' E 002°37'0 0.2
2018-May-14 23:20N 51°25' E 002°37'0 0.1
2018-May-14 22:56N 51°25' E 002°37'0 0.0
2018-May-14 22:26N 51°25' E 002°37'0 0.1
2018-May-14 21:44N 51°25' E 002°37'0 0.0
2018-May-14 21:26N 51°25' E 002°37'0 0.1
2018-May-14 20:53N 51°25' E 002°37'0 0.0
2018-May-14 20:20N 51°25' E 002°37'0 0.0
2018-May-14 19:59N 51°25' E 002°37'0 0.0
2018-May-14 19:29N 51°25' E 002°37'0 0.0
2018-May-14 18:56N 51°25' E 002°37'0 0.0
2018-May-14 18:29N 51°25' E 002°37'0 0.0
2018-May-14 17:54N 51°25' E 002°37'0 0.0
2018-May-14 17:21N 51°25' E 002°37'0 0.1
2018-May-14 17:00N 51°25' E 002°37'0 0.1
2018-May-14 16:24N 51°25' E 002°37'0 0.0
2018-May-14 15:55N 51°25' E 002°37'0 0.0
2018-May-14 15:30N 51°25' E 002°37'0 0.0
2018-May-14 14:57N 51°25' E 002°37'0 0.1
2018-May-14 14:27N 51°25' E 002°37'0 0.1
2018-May-14 14:00N 51°25' E 002°37'0 0.1
2018-May-14 13:30N 51°25' E 002°37'0 0.0
2018-May-14 13:00N 51°25' E 002°37'0 0.0
2018-May-14 12:29N 51°25' E 002°37'0 0.1
2018-May-14 11:54N 51°25' E 002°37'0 0.1
2018-May-14 11:30N 51°25' E 002°37'0 0.1
2018-May-14 11:00N 51°25' E 002°37'0 0.1
2018-May-14 10:28N 51°25' E 002°37'0 0.1
2018-May-14 09:58N 51°25' E 002°37'0 0.0
2018-May-14 09:28N 51°25' E 002°37'0 0.0
2018-May-14 08:55N 51°25' E 002°37'0 1.0
2018-May-14 08:28N 51°24' E 002°37'3 7.0
2018-May-14 08:00N 51°23' E 002°32'5 9.7
2018-May-14 07:30N 51°21' E 002°25'510.0
2018-May-14 07:00N 51°19' E 002°18'5 9.8
2018-May-14 06:30N 51°16' E 002°11'510.1
2018-May-14 06:00N 51°13' E 002°05'510.5
2018-May-14 05:30N 51°11' E 001°57'610.6
2018-May-14 04:59N 51°08' E 001°49'510.6
2018-May-14 04:28N 51°05' E 001°42'511.0
2018-May-14 04:00N 51°02' E 001°36'611.9
2018-May-14 03:30N 50°57' E 001°30'612.1
2018-May-14 03:00N 50°52' E 001°26'612.3
2018-May-14 02:30N 50°46' E 001°23'2212.1
2018-May-14 00:41N 50°30' E 000°58'1112.6
2018-May-13 23:51N 50°27' E 000°42'512.6
2018-May-13 23:24N 50°25' E 000°34'512.7
2018-May-13 23:00N 50°23' E 000°27'612.7
2018-May-13 22:30N 50°22' E 000°17'613.1
2018-May-13 22:00N 50°19' E 000°08'612.5
2018-May-13 21:30N 50°16' W 000°00'713.4
2018-May-13 21:00N 50°09' W 000°03'713.5
2018-May-13 20:30N 50°03' W 000°05'713.3
2018-May-13 20:00N 49°56' W 000°06'  

Dump ship's entire track history